createdAt,value
2019-02-16T14:02:29.448Z,1011.88
2019-02-16T14:05:44.594Z,1010.50
2019-02-16T14:08:39.727Z,1009.55
2019-02-16T14:09:39.856Z,1009.34
2019-02-16T14:10:50.506Z,1009.16
2019-02-16T14:11:40.193Z,1008.90
2019-02-16T14:32:03.232Z,1009.21
2019-02-16T14:35:55.537Z,1009.54
2019-02-16T14:38:34.104Z,1009.71
2019-02-16T14:39:34.278Z,1009.75
2019-02-16T14:45:46.477Z,1010.01
2019-02-16T14:46:47.735Z,1010.13
2019-02-16T14:47:47.952Z,1010.14
2019-02-16T14:48:49.962Z,1010.17
2019-02-16T14:49:48.343Z,1010.14
2019-02-16T14:50:48.506Z,1010.22
2019-02-16T14:51:48.692Z,1010.24
2019-02-16T14:52:48.863Z,1010.21
2019-02-16T14:53:49.026Z,1010.20
2019-02-16T14:54:49.185Z,1010.19
2019-02-16T14:55:53.982Z,1010.16
2019-02-16T14:56:51.500Z,1010.14
2019-02-16T14:57:49.642Z,1010.11
2019-02-16T14:58:49.817Z,1010.18
2019-02-16T14:59:49.977Z,1010.17
2019-02-16T15:00:50.129Z,1010.22
2019-02-16T15:01:50.280Z,1010.08
2019-02-16T15:02:50.460Z,1010.12
2019-02-16T15:03:50.623Z,1010.08
2019-02-16T15:04:50.846Z,1010.10
2019-02-16T15:05:51.020Z,1010.01
2019-02-16T15:06:51.188Z,1010.01
2019-02-16T15:07:51.345Z,1010.09
2019-02-16T15:08:51.514Z,1010.15
2019-02-16T15:09:51.723Z,1010.10
2019-02-16T15:10:51.915Z,1010.19
2019-02-16T15:11:52.094Z,1010.21
2019-02-16T15:12:52.316Z,1010.10
2019-02-16T15:13:52.492Z,1010.14
2019-02-16T15:14:52.659Z,1010.16
2019-02-16T15:15:52.845Z,1010.17
2019-02-16T15:16:53.039Z,1010.26
2019-02-16T15:17:53.215Z,1010.39
2019-02-16T15:18:53.419Z,1010.41
2019-02-16T15:19:53.610Z,1010.39
2019-02-16T15:20:53.771Z,1010.53
2019-02-16T15:21:53.920Z,1010.59
2019-02-16T15:22:54.150Z,1010.66
2019-02-16T15:23:54.306Z,1010.76
2019-02-16T15:24:54.486Z,1010.79
2019-02-16T15:26:00.906Z,1010.87
2019-02-16T15:26:56.803Z,1010.94
2019-02-16T15:27:54.938Z,1010.95
2019-02-16T15:28:55.113Z,1011.04
2019-02-16T15:29:55.280Z,1011.06
2019-02-16T15:30:55.437Z,1011.11
2019-02-16T15:31:55.603Z,1011.18
2019-02-16T15:32:55.938Z,1011.31
2019-02-16T15:33:56.009Z,1011.34
2019-02-16T15:34:56.183Z,1011.36
2019-02-16T15:35:57.178Z,1011.44
2019-02-16T15:36:56.859Z,1011.44
2019-02-16T15:37:56.852Z,1011.55
2019-02-16T15:38:56.960Z,1011.60
2019-02-16T15:39:57.200Z,1011.66
2019-02-16T15:40:57.381Z,1011.77
2019-02-16T15:41:57.605Z,1011.79
2019-02-16T15:42:57.837Z,1011.84
2019-02-16T15:43:58.314Z,1011.83
2019-02-16T15:44:58.261Z,1011.85
2019-02-16T15:45:58.452Z,1011.87
2019-02-16T15:46:58.681Z,1011.91
2019-02-16T15:47:58.798Z,1011.95
2019-02-16T15:48:59.046Z,1011.97
2019-02-16T15:49:59.133Z,1011.99
2019-02-16T15:50:59.306Z,1012.08
2019-02-16T15:51:59.500Z,1012.15
2019-02-16T15:52:59.882Z,1012.14
2019-02-16T15:54:00.095Z,1012.23
2019-02-16T15:55:00.329Z,1012.24
2019-02-16T15:56:00.371Z,1012.33
2019-02-16T15:57:00.644Z,1012.35
2019-02-16T15:58:00.748Z,1012.38
2019-02-16T15:59:01.146Z,1012.43
2019-02-16T16:00:01.373Z,1012.51
2019-02-16T16:01:01.473Z,1012.60
2019-02-16T16:02:01.654Z,1012.71
2019-02-16T16:03:02.186Z,1012.79
2019-02-16T16:04:02.704Z,1012.79
2019-02-16T16:05:02.340Z,1012.92
2019-02-16T16:06:02.494Z,1012.91
2019-02-16T16:07:02.515Z,1013.01
2019-02-16T16:08:02.737Z,1013.05
2019-02-16T16:09:02.943Z,1013.15
2019-02-16T16:10:04.824Z,1013.26
2019-02-16T16:11:04.185Z,1013.35
2019-02-16T16:12:03.602Z,1013.45
2019-02-16T16:13:03.751Z,1013.55
2019-02-16T16:14:03.824Z,1013.62
2019-02-16T16:15:04.182Z,1013.70
2019-02-16T16:16:04.171Z,1013.73
2019-02-16T16:17:04.407Z,1013.82
2019-02-16T16:18:04.510Z,1013.90
2019-02-16T16:19:04.650Z,1013.93
2019-02-16T16:20:05.043Z,1014.03
2019-02-16T16:21:05.265Z,1014.00
2019-02-16T16:22:05.322Z,1014.10
2019-02-16T16:23:05.456Z,1014.15
2019-02-16T16:24:05.648Z,1014.19
2019-02-16T16:25:05.839Z,1014.17
2019-02-16T16:26:06.073Z,1014.30
2019-02-16T16:27:06.215Z,1014.36
2019-02-16T16:28:06.399Z,1014.37
2019-02-16T16:29:06.646Z,1014.40
2019-02-16T16:30:06.912Z,1014.45
2019-02-16T16:31:07.277Z,1014.55
2019-02-16T16:32:07.207Z,1014.62
2019-02-16T16:33:07.254Z,1014.61
2019-02-16T16:34:07.446Z,1014.63
2019-02-16T16:35:07.941Z,1014.74
2019-02-16T16:36:08.247Z,1014.69
2019-02-16T16:37:08.413Z,1014.87
2019-02-16T16:38:08.993Z,1014.89
2019-02-16T16:39:09.186Z,1014.93
2019-02-16T16:40:08.636Z,1015.02
2019-02-16T16:41:09.120Z,1015.09
2019-02-16T16:42:09.826Z,1015.14
2019-02-16T16:43:09.639Z,1015.14
2019-02-16T16:44:09.623Z,1015.26
2019-02-16T16:45:10.786Z,1015.28
2019-02-16T16:46:09.783Z,1015.30
2019-02-16T16:47:09.913Z,1015.42
2019-02-16T16:48:10.138Z,1015.46
2019-02-16T16:49:10.309Z,1015.50
2019-02-16T16:50:18.503Z,1015.59
2019-02-16T16:51:13.219Z,1015.60
2019-02-16T16:52:11.052Z,1015.76
2019-02-16T16:53:11.525Z,1015.75
2019-02-16T16:54:11.371Z,1015.76
2019-02-16T16:55:11.492Z,1015.79
2019-02-16T16:56:11.574Z,1015.80
2019-02-16T16:57:11.742Z,1015.87
2019-02-16T16:58:11.910Z,1015.97
2019-02-16T16:59:12.090Z,1016.05
2019-02-16T17:00:12.322Z,1016.11
2019-02-16T17:01:12.640Z,1016.14
2019-02-16T17:02:13.141Z,1016.21
2019-02-16T17:03:13.501Z,1016.28
2019-02-16T17:16:52.746Z,1017.92
2019-02-16T17:17:54.037Z,1017.92
2019-02-16T17:18:54.175Z,1017.93
2019-02-16T17:19:54.493Z,1017.95
2019-02-16T17:20:54.725Z,1017.94
2019-02-16T17:21:54.722Z,1017.88
2019-02-16T17:22:55.901Z,1017.89
2019-02-16T17:23:55.085Z,1017.88
2019-02-16T17:24:55.289Z,1017.87
2019-02-16T17:25:55.514Z,1017.92
2019-02-16T17:26:55.716Z,1017.92
2019-02-16T17:27:55.930Z,1017.90
2019-02-16T17:28:56.147Z,1017.83
2019-02-16T17:29:56.329Z,1017.89
2019-02-16T17:30:56.523Z,1017.89
2019-02-16T17:31:56.758Z,1017.97
2019-02-16T17:32:56.969Z,1017.99
2019-02-16T17:33:57.080Z,1018.04
2019-02-16T17:34:57.310Z,1018.04
2019-02-16T17:35:57.498Z,1018.06
2019-02-16T17:36:57.700Z,1018.08
2019-02-16T17:37:57.937Z,1018.13
2019-02-16T17:38:58.008Z,1018.11
2019-02-16T17:39:58.198Z,1018.16
2019-02-16T17:40:58.418Z,1018.27
2019-02-16T17:41:58.528Z,1018.23
2019-02-16T17:42:58.744Z,1018.28
2019-02-16T17:43:58.952Z,1018.36
2019-02-16T17:44:59.215Z,1018.29
2019-02-16T17:45:59.301Z,1018.32
2019-02-16T17:46:59.505Z,1018.36
2019-02-16T17:47:59.683Z,1018.40
2019-02-16T17:48:59.962Z,1018.44
2019-02-16T17:50:00.053Z,1018.49
2019-02-16T17:51:00.175Z,1018.54
2019-02-16T17:52:00.433Z,1018.57
2019-02-16T17:53:00.541Z,1018.59
2019-02-16T17:54:08.179Z,1018.68
2019-02-16T17:55:02.995Z,1018.62
2019-02-16T17:56:01.136Z,1018.64
2019-02-16T17:57:01.343Z,1018.65
2019-02-16T17:58:01.598Z,1018.66
2019-02-16T17:59:01.783Z,1018.71
2019-02-16T18:00:02.003Z,1018.73
2019-02-16T18:30:28.835Z,1020.62
2019-02-16T18:31:30.653Z,1020.61
2019-02-16T18:32:31.550Z,1020.66
2019-02-16T18:33:31.406Z,1020.58
2019-02-16T18:34:30.590Z,1020.50
2019-02-16T18:35:30.802Z,1020.49
2019-02-16T18:36:31.232Z,1020.48
2019-02-16T18:37:31.324Z,1020.40
2019-02-16T18:38:31.400Z,1020.40
2019-02-16T18:39:31.627Z,1020.29
2019-02-16T18:40:31.859Z,1020.30
2019-02-16T18:41:32.060Z,1020.28
2019-02-16T18:42:32.308Z,1020.24
2019-02-16T18:43:32.465Z,1020.22
2019-02-16T18:44:32.938Z,1020.29
2019-02-16T18:45:32.924Z,1020.27
2019-02-16T18:46:33.142Z,1020.19
2019-02-16T18:47:33.478Z,1020.21
2019-02-16T18:48:33.881Z,1020.22
2019-02-16T18:49:33.976Z,1020.21
2019-02-16T18:50:34.085Z,1020.23
2019-02-16T18:51:34.375Z,1020.18
2019-02-16T18:52:34.612Z,1020.16
2019-02-16T18:53:34.479Z,1020.18
2019-02-16T18:54:34.675Z,1020.14
2019-02-16T18:55:34.943Z,1020.15
2019-02-16T18:56:35.114Z,1020.22
2019-02-16T18:57:35.384Z,1020.21
2019-02-16T18:58:35.475Z,1020.19
2019-02-16T18:59:35.571Z,1020.23
2019-02-16T20:00:29.606Z,1022.17
2019-02-16T20:01:30.782Z,1022.11
2019-02-16T20:02:31.014Z,1022.08
2019-02-16T20:03:31.171Z,1022.06
2019-02-16T20:04:31.326Z,1021.92
2019-02-16T20:05:31.687Z,1021.88
2019-02-16T20:06:31.986Z,1021.81
2019-02-16T20:07:32.018Z,1021.75
2019-02-16T20:08:32.157Z,1021.65
2019-02-16T20:09:32.301Z,1021.63
2019-02-16T20:10:32.493Z,1021.51
2019-02-16T20:11:32.696Z,1021.52
2019-02-16T20:12:32.850Z,1021.48
2019-02-16T20:13:33.108Z,1021.40
2019-02-16T20:14:33.195Z,1021.37
2019-02-16T20:15:33.447Z,1021.38
2019-02-16T20:16:33.687Z,1021.34
2019-02-16T20:17:33.812Z,1021.35
2019-02-16T20:18:34.184Z,1021.29
2019-02-16T20:19:34.187Z,1021.31
2019-02-16T20:20:34.394Z,1021.30
2019-02-16T20:21:34.522Z,1021.29
2019-02-16T20:22:34.627Z,1021.27
2019-02-16T20:23:34.828Z,1021.32
2019-02-16T20:24:34.993Z,1021.30
2019-02-16T20:25:35.094Z,1021.19
2019-02-16T20:26:35.357Z,1021.19
2019-02-16T20:27:37.655Z,1021.20
2019-02-16T20:28:36.619Z,1021.21
2019-02-16T20:29:35.964Z,1021.21
2019-02-16T20:30:36.930Z,1021.22
2019-02-16T20:31:36.282Z,1021.23
2019-02-16T20:32:36.404Z,1021.23
2019-02-16T20:33:36.573Z,1021.29
2019-02-16T20:34:36.665Z,1021.24
2019-02-16T20:35:36.902Z,1021.29
2019-02-16T20:36:37.102Z,1021.32
2019-02-16T20:37:39.312Z,1021.32
2019-02-16T20:38:37.605Z,1021.33
2019-02-16T20:39:37.759Z,1021.34
2019-02-16T20:40:37.898Z,1021.33
2019-02-16T20:41:38.003Z,1021.37
2019-02-16T20:42:38.198Z,1021.38
2019-02-16T20:43:38.482Z,1021.33
2019-02-16T20:44:38.611Z,1021.38
2019-02-16T20:45:38.735Z,1021.39
2019-02-16T20:46:38.925Z,1021.33
2019-02-16T20:47:39.099Z,1021.43
2019-02-16T20:48:39.339Z,1021.41
2019-02-16T20:49:39.547Z,1021.41
2019-02-16T20:50:39.728Z,1021.40
2019-02-16T20:51:39.940Z,1021.43
2019-02-16T20:52:40.159Z,1021.38
2019-02-16T20:53:40.391Z,1021.39
2019-02-16T20:54:41.596Z,1021.41
2019-02-16T20:55:40.775Z,1021.38
2019-02-16T20:56:40.976Z,1021.43
2019-02-16T20:57:47.847Z,1021.44
2019-02-16T20:58:43.401Z,1021.41
2019-02-16T20:59:41.529Z,1021.40
2019-02-16T21:15:26.929Z,1022.52
2019-02-16T21:16:27.034Z,1022.48
2019-02-16T21:17:27.167Z,1022.39
2019-02-16T21:18:27.329Z,1022.41
2019-02-16T21:19:27.507Z,1022.35
2019-02-16T21:20:27.653Z,1022.30
2019-02-16T21:21:28.880Z,1022.27
2019-02-16T21:22:29.058Z,1022.22
2019-02-16T21:23:29.238Z,1022.12
2019-02-16T21:24:29.399Z,1022.01
2019-02-16T21:25:29.626Z,1021.98
2019-02-16T21:26:36.488Z,1021.99
2019-02-16T21:27:31.997Z,1021.96
2019-02-16T21:28:30.216Z,1021.93
2019-02-16T21:29:30.432Z,1021.86
2019-02-16T21:30:30.648Z,1021.91
2019-02-16T21:31:30.856Z,1021.92
2019-02-16T21:32:31.047Z,1021.89
2019-02-16T21:33:31.255Z,1021.89
2019-02-16T21:34:31.500Z,1021.83
2019-02-16T21:35:31.681Z,1021.87
2019-02-16T21:36:31.893Z,1021.88
2019-02-16T21:37:32.082Z,1021.89
2019-02-16T21:38:32.313Z,1021.91
2019-02-16T21:39:34.894Z,1021.82
2019-02-16T21:40:32.747Z,1021.89
2019-02-16T21:41:32.933Z,1021.86
2019-02-16T21:42:33.113Z,1021.81
2019-02-16T21:43:33.313Z,1021.83
2019-02-16T21:44:33.574Z,1021.81
2019-02-16T21:45:33.635Z,1021.87
2019-02-16T21:46:33.827Z,1021.79
2019-02-16T21:47:34.049Z,1021.78
2019-02-16T21:48:34.335Z,1021.81
2019-02-16T21:49:34.410Z,1021.85
2019-02-16T21:50:34.609Z,1021.85
2019-02-16T21:51:34.804Z,1021.81
2019-02-16T21:52:35.019Z,1021.81
2019-02-16T21:53:35.205Z,1021.79
2019-02-16T21:54:35.395Z,1021.79
2019-02-16T21:55:35.613Z,1021.77
2019-02-16T21:56:35.834Z,1021.80
2019-02-16T21:57:36.019Z,1021.77
2019-02-16T21:58:36.251Z,1021.80
2019-02-16T21:59:36.458Z,1021.80
